sensor_id;sensor_type;location;lat;lon;timestamp;temperature;humidity
11925;DHT22;6022;48.768;18.608;2022-12-18T00:01:27;-4.90;99.90
11925;DHT22;6022;48.768;18.608;2022-12-18T00:03:56;-5.10;99.90
11925;DHT22;6022;48.768;18.608;2022-12-18T00:06:25;-4.80;99.90
11925;DHT22;6022;48.768;18.608;2022-12-18T00:08:55;-4.80;99.90
11925;DHT22;6022;48.768;18.608;2022-12-18T00:11:26;-4.70;99.90
11925;DHT22;6022;48.768;18.608;2022-12-18T00:13:57;-4.60;99.90
11925;DHT22;6022;48.768;18.608;2022-12-18T00:16:28;-5.00;99.90
11925;DHT22;6022;48.768;18.608;2022-12-18T00:18:57;-4.80;99.90
11925;DHT22;6022;48.768;18.608;2022-12-18T00:21:27;-4.80;99.90
11925;DHT22;6022;48.768;18.608;2022-12-18T00:23:56;-4.90;99.90
11925;DHT22;6022;48.768;18.608;2022-12-18T00:26:25;-5.00;99.90
11925;DHT22;6022;48.768;18.608;2022-12-18T00:28:57;-4.90;99.90
11925;DHT22;6022;48.768;18.608;2022-12-18T00:31:26;-4.90;99.90
11925;DHT22;6022;48.768;18.608;2022-12-18T00:33:54;-4.90;99.90
11925;DHT22;6022;48.768;18.608;2022-12-18T00:36:25;-4.90;99.90
11925;DHT22;6022;48.768;18.608;2022-12-18T00:38:56;-4.90;99.90
11925;DHT22;6022;48.768;18.608;2022-12-18T00:41:25;-4.90;99.90
11925;DHT22;6022;48.768;18.608;2022-12-18T00:44:14;-5.30;99.90
11925;DHT22;6022;48.768;18.608;2022-12-18T00:46:43;-5.30;99.90
11925;DHT22;6022;48.768;18.608;2022-12-18T00:49:11;-5.50;99.90
11925;DHT22;6022;48.768;18.608;2022-12-18T00:51:38;-5.40;99.90
11925;DHT22;6022;48.768;18.608;2022-12-18T00:54:05;-5.50;99.90
11925;DHT22;6022;48.768;18.608;2022-12-18T00:56:32;-5.70;99.90
11925;DHT22;6022;48.768;18.608;2022-12-18T00:58:59;-5.50;99.90
11925;DHT22;6022;48.768;18.608;2022-12-18T01:01:26;-5.50;99.90
11925;DHT22;6022;48.768;18.608;2022-12-18T01:03:54;-5.40;99.90
11925;DHT22;6022;48.768;18.608;2022-12-18T01:06:21;-5.50;99.90
11925;DHT22;6022;48.768;18.608;2022-12-18T01:08:48;-5.40;99.90
11925;DHT22;6022;48.768;18.608;2022-12-18T01:11:18;-5.50;99.90
11925;DHT22;6022;48.768;18.608;2022-12-18T01:13:46;-5.40;99.90
11925;DHT22;6022;48.768;18.608;2022-12-18T01:16:15;-5.40;99.90
11925;DHT22;6022;48.768;18.608;2022-12-18T01:18:43;-5.40;99.90
11925;DHT22;6022;48.768;18.608;2022-12-18T01:21:16;-5.30;99.90
11925;DHT22;6022;48.768;18.608;2022-12-18T01:23:44;-5.50;99.90
11925;DHT22;6022;48.768;18.608;2022-12-18T01:26:15;-5.40;99.90
11925;DHT22;6022;48.768;18.608;2022-12-18T01:28:43;-5.20;99.90
11925;DHT22;6022;48.768;18.608;2022-12-18T01:31:16;-5.70;99.90
11925;DHT22;6022;48.768;18.608;2022-12-18T01:33:52;-5.50;99.90
11925;DHT22;6022;48.768;18.608;2022-12-18T01:36:28;-5.50;99.90
11925;DHT22;6022;48.768;18.608;2022-12-18T01:38:59;-5.80;99.90
11925;DHT22;6022;48.768;18.608;2022-12-18T01:41:29;-5.70;99.90
11925;DHT22;6022;48.768;18.608;2022-12-18T01:52:46;-5.70;99.90
11925;DHT22;6022;48.768;18.608;2022-12-18T01:55:18;-5.80;99.90
11925;DHT22;6022;48.768;18.608;2022-12-18T01:57:50;-5.80;99.90
11925;DHT22;6022;48.768;18.608;2022-12-18T02:00:21;-5.70;99.90
11925;DHT22;6022;48.768;18.608;2022-12-18T02:02:49;-6.10;99.90
11925;DHT22;6022;48.768;18.608;2022-12-18T02:05:21;-6.10;99.90
11925;DHT22;6022;48.768;18.608;2022-12-18T02:17:06;-5.80;99.90
11925;DHT22;6022;48.768;18.608;2022-12-18T02:28:21;-5.80;99.90
11925;DHT22;6022;48.768;18.608;2022-12-18T02:30:54;-5.80;99.90
11925;DHT22;6022;48.768;18.608;2022-12-18T02:33:27;-5.80;99.90
11925;DHT22;6022;48.768;18.608;2022-12-18T02:35:57;-5.90;99.90
11925;DHT22;6022;48.768;18.608;2022-12-18T02:38:26;-6.20;99.90
11925;DHT22;6022;48.768;18.608;2022-12-18T02:40:55;-5.70;99.90
11925;DHT22;6022;48.768;18.608;2022-12-18T02:43:23;-5.90;99.90
11925;DHT22;6022;48.768;18.608;2022-12-18T02:45:56;-5.80;99.90
11925;DHT22;6022;48.768;18.608;2022-12-18T02:48:33;-6.20;99.90
11925;DHT22;6022;48.768;18.608;2022-12-18T02:53:58;-6.30;99.90
11925;DHT22;6022;48.768;18.608;2022-12-18T02:56:39;-6.10;99.90
11925;DHT22;6022;48.768;18.608;2022-12-18T02:59:35;-6.10;99.90
11925;DHT22;6022;48.768;18.608;2022-12-18T03:02:22;-6.20;99.90
11925;DHT22;6022;48.768;18.608;2022-12-18T03:05:15;-6.20;99.90
11925;DHT22;6022;48.768;18.608;2022-12-18T03:08:01;-6.30;99.90
11925;DHT22;6022;48.768;18.608;2022-12-18T03:10:51;-5.90;99.90
11925;DHT22;6022;48.768;18.608;2022-12-18T03:13:39;-6.10;99.90
11925;DHT22;6022;48.768;18.608;2022-12-18T03:16:11;-6.20;99.90
11925;DHT22;6022;48.768;18.608;2022-12-18T03:18:49;-6.20;99.90
11925;DHT22;6022;48.768;18.608;2022-12-18T03:21:25;-6.20;99.90
11925;DHT22;6022;48.768;18.608;2022-12-18T03:23:56;-6.30;99.90
11925;DHT22;6022;48.768;18.608;2022-12-18T03:26:26;-6.10;99.90
11925;DHT22;6022;48.768;18.608;2022-12-18T03:29:07;-6.20;99.90
11925;DHT22;6022;48.768;18.608;2022-12-18T03:31:40;-6.10;99.90
11925;DHT22;6022;48.768;18.608;2022-12-18T03:34:15;-5.80;99.90
11925;DHT22;6022;48.768;18.608;2022-12-18T03:36:46;-6.20;99.90
11925;DHT22;6022;48.768;18.608;2022-12-18T03:39:13;-6.10;99.90
11925;DHT22;6022;48.768;18.608;2022-12-18T03:41:43;-6.20;99.90
11925;DHT22;6022;48.768;18.608;2022-12-18T03:44:37;-6.10;99.90
11925;DHT22;6022;48.768;18.608;2022-12-18T03:47:30;-6.40;99.90
11925;DHT22;6022;48.768;18.608;2022-12-18T03:50:29;-6.00;99.90
11925;DHT22;6022;48.768;18.608;2022-12-18T03:53:11;-6.40;99.90
11925;DHT22;6022;48.768;18.608;2022-12-18T03:55:41;-6.00;99.90
11925;DHT22;6022;48.768;18.608;2022-12-18T03:58:12;-6.10;99.90
11925;DHT22;6022;48.768;18.608;2022-12-18T04:00:45;-6.10;99.90
11925;DHT22;6022;48.768;18.608;2022-12-18T04:03:14;-6.10;99.90
11925;DHT22;6022;48.768;18.608;2022-12-18T04:05:52;-6.10;99.90
11925;DHT22;6022;48.768;18.608;2022-12-18T04:08:22;-6.00;99.90
11925;DHT22;6022;48.768;18.608;2022-12-18T04:10:51;-6.20;99.90
11925;DHT22;6022;48.768;18.608;2022-12-18T04:13:27;-6.10;99.90
11925;DHT22;6022;48.768;18.608;2022-12-18T04:15:56;-6.10;99.90
11925;DHT22;6022;48.768;18.608;2022-12-18T04:18:23;-6.40;99.90
11925;DHT22;6022;48.768;18.608;2022-12-18T04:20:50;-6.50;99.90
11925;DHT22;6022;48.768;18.608;2022-12-18T04:23:18;-6.20;99.90
11925;DHT22;6022;48.768;18.608;2022-12-18T04:25:46;-6.40;99.90
11925;DHT22;6022;48.768;18.608;2022-12-18T04:28:14;-6.20;99.90
11925;DHT22;6022;48.768;18.608;2022-12-18T04:30:41;-6.50;99.90
11925;DHT22;6022;48.768;18.608;2022-12-18T04:33:09;-6.50;99.90
11925;DHT22;6022;48.768;18.608;2022-12-18T04:35:37;-6.60;99.90
11925;DHT22;6022;48.768;18.608;2022-12-18T04:38:06;-6.70;99.90
11925;DHT22;6022;48.768;18.608;2022-12-18T04:40:35;-6.80;99.90
11925;DHT22;6022;48.768;18.608;2022-12-18T04:43:04;-6.70;99.90
11925;DHT22;6022;48.768;18.608;2022-12-18T04:45:32;-6.60;99.90
11925;DHT22;6022;48.768;18.608;2022-12-18T04:48:00;-6.40;99.90
11925;DHT22;6022;48.768;18.608;2022-12-18T04:50:28;-6.90;99.90
11925;DHT22;6022;48.768;18.608;2022-12-18T04:52:56;-6.40;99.90
11925;DHT22;6022;48.768;18.608;2022-12-18T04:55:23;-6.30;99.90
11925;DHT22;6022;48.768;18.608;2022-12-18T04:57:50;-6.70;99.90
11925;DHT22;6022;48.768;18.608;2022-12-18T05:00:17;-6.50;99.90
11925;DHT22;6022;48.768;18.608;2022-12-18T05:02:44;-6.90;99.90
11925;DHT22;6022;48.768;18.608;2022-12-18T05:05:12;-6.60;99.90
11925;DHT22;6022;48.768;18.608;2022-12-18T05:07:39;-6.30;99.90
11925;DHT22;6022;48.768;18.608;2022-12-18T05:10:07;-6.40;99.90
11925;DHT22;6022;48.768;18.608;2022-12-18T05:12:36;-6.70;99.90
11925;DHT22;6022;48.768;18.608;2022-12-18T05:15:24;-6.50;99.90
11925;DHT22;6022;48.768;18.608;2022-12-18T05:17:54;-6.90;99.90
11925;DHT22;6022;48.768;18.608;2022-12-18T05:20:21;-6.60;99.90
11925;DHT22;6022;48.768;18.608;2022-12-18T05:22:48;-6.70;99.90
11925;DHT22;6022;48.768;18.608;2022-12-18T05:25:15;-6.50;99.90
11925;DHT22;6022;48.768;18.608;2022-12-18T05:27:42;-6.50;99.90
11925;DHT22;6022;48.768;18.608;2022-12-18T05:30:10;-6.50;99.90
11925;DHT22;6022;48.768;18.608;2022-12-18T05:32:38;-6.60;99.90
11925;DHT22;6022;48.768;18.608;2022-12-18T05:35:07;-6.90;99.90
11925;DHT22;6022;48.768;18.608;2022-12-18T05:37:35;-6.80;99.90
11925;DHT22;6022;48.768;18.608;2022-12-18T05:40:09;-6.70;99.90
11925;DHT22;6022;48.768;18.608;2022-12-18T05:42:37;-7.00;99.90
11925;DHT22;6022;48.768;18.608;2022-12-18T05:45:05;-6.50;99.90
11925;DHT22;6022;48.768;18.608;2022-12-18T05:47:33;-6.60;99.90
11925;DHT22;6022;48.768;18.608;2022-12-18T05:50:00;-6.60;99.90
11925;DHT22;6022;48.768;18.608;2022-12-18T05:52:27;-6.50;99.90
11925;DHT22;6022;48.768;18.608;2022-12-18T05:54:54;-7.00;99.90
11925;DHT22;6022;48.768;18.608;2022-12-18T05:57:22;-6.90;99.90
11925;DHT22;6022;48.768;18.608;2022-12-18T05:59:49;-7.00;99.90
11925;DHT22;6022;48.768;18.608;2022-12-18T06:02:16;-6.80;99.90
11925;DHT22;6022;48.768;18.608;2022-12-18T06:04:43;-6.90;99.90
11925;DHT22;6022;48.768;18.608;2022-12-18T06:07:10;-6.80;99.90
11925;DHT22;6022;48.768;18.608;2022-12-18T06:09:37;-6.90;99.90
11925;DHT22;6022;48.768;18.608;2022-12-18T06:12:04;-6.90;99.90
11925;DHT22;6022;48.768;18.608;2022-12-18T06:14:32;-6.80;99.90
11925;DHT22;6022;48.768;18.608;2022-12-18T06:16:59;-6.90;99.90
11925;DHT22;6022;48.768;18.608;2022-12-18T06:19:26;-6.90;99.90
11925;DHT22;6022;48.768;18.608;2022-12-18T06:21:53;-6.80;99.90
11925;DHT22;6022;48.768;18.608;2022-12-18T06:24:21;-7.00;99.90
11925;DHT22;6022;48.768;18.608;2022-12-18T06:26:48;-7.10;99.90
11925;DHT22;6022;48.768;18.608;2022-12-18T06:29:16;-7.10;99.90
11925;DHT22;6022;48.768;18.608;2022-12-18T06:31:43;-6.90;99.90
11925;DHT22;6022;48.768;18.608;2022-12-18T06:34:10;-6.80;99.90
11925;DHT22;6022;48.768;18.608;2022-12-18T06:36:37;-7.00;99.90
11925;DHT22;6022;48.768;18.608;2022-12-18T06:39:04;-6.80;99.90
11925;DHT22;6022;48.768;18.608;2022-12-18T06:41:32;-7.10;99.90
11925;DHT22;6022;48.768;18.608;2022-12-18T06:44:02;-7.00;99.90
11925;DHT22;6022;48.768;18.608;2022-12-18T06:46:29;-7.10;99.90
11925;DHT22;6022;48.768;18.608;2022-12-18T06:48:59;-7.10;99.90
11925;DHT22;6022;48.768;18.608;2022-12-18T06:51:29;-6.90;99.90
11925;DHT22;6022;48.768;18.608;2022-12-18T06:53:58;-7.20;99.90
11925;DHT22;6022;48.768;18.608;2022-12-18T06:56:25;-6.80;99.90
11925;DHT22;6022;48.768;18.608;2022-12-18T06:58:56;-7.30;99.90
11925;DHT22;6022;48.768;18.608;2022-12-18T07:01:26;-7.00;99.90
11925;DHT22;6022;48.768;18.608;2022-12-18T07:03:57;-7.20;99.90
11925;DHT22;6022;48.768;18.608;2022-12-18T07:06:25;-6.70;99.90
11925;DHT22;6022;48.768;18.608;2022-12-18T07:08:53;-6.60;99.90
11925;DHT22;6022;48.768;18.608;2022-12-18T07:11:21;-6.90;99.90
11925;DHT22;6022;48.768;18.608;2022-12-18T07:13:49;-6.70;99.90
11925;DHT22;6022;48.768;18.608;2022-12-18T07:16:18;-6.40;99.90
11925;DHT22;6022;48.768;18.608;2022-12-18T07:18:52;-6.20;99.90
11925;DHT22;6022;48.768;18.608;2022-12-18T07:21:22;-6.30;99.90
11925;DHT22;6022;48.768;18.608;2022-12-18T07:23:50;-6.20;99.90
11925;DHT22;6022;48.768;18.608;2022-12-18T07:26:20;-5.90;99.90
11925;DHT22;6022;48.768;18.608;2022-12-18T07:28:48;-6.30;99.90
11925;DHT22;6022;48.768;18.608;2022-12-18T07:31:19;-6.00;99.90
11925;DHT22;6022;48.768;18.608;2022-12-18T07:33:49;-6.10;99.90
11925;DHT22;6022;48.768;18.608;2022-12-18T07:36:17;-5.80;99.90
11925;DHT22;6022;48.768;18.608;2022-12-18T07:38:47;-5.60;99.90
11925;DHT22;6022;48.768;18.608;2022-12-18T07:41:15;-5.40;99.90
11925;DHT22;6022;48.768;18.608;2022-12-18T07:43:42;-5.50;99.90
11925;DHT22;6022;48.768;18.608;2022-12-18T07:46:14;-5.50;99.90
11925;DHT22;6022;48.768;18.608;2022-12-18T07:48:43;-5.10;99.90
11925;DHT22;6022;48.768;18.608;2022-12-18T07:51:16;-5.00;99.90
11925;DHT22;6022;48.768;18.608;2022-12-18T07:53:53;-5.00;99.90
11925;DHT22;6022;48.768;18.608;2022-12-18T07:56:20;-5.40;99.90
11925;DHT22;6022;48.768;18.608;2022-12-18T07:58:57;-5.40;99.90
11925;DHT22;6022;48.768;18.608;2022-12-18T08:01:27;-5.30;99.90
11925;DHT22;6022;48.768;18.608;2022-12-18T08:03:54;-5.30;99.90
11925;DHT22;6022;48.768;18.608;2022-12-18T08:06:21;-5.30;99.90
11925;DHT22;6022;48.768;18.608;2022-12-18T08:08:54;-4.70;99.90
11925;DHT22;6022;48.768;18.608;2022-12-18T08:11:24;-5.20;99.90
11925;DHT22;6022;48.768;18.608;2022-12-18T08:13:54;-5.10;99.90
11925;DHT22;6022;48.768;18.608;2022-12-18T08:16:23;-4.90;99.90
11925;DHT22;6022;48.768;18.608;2022-12-18T08:18:52;-5.00;99.90
11925;DHT22;6022;48.768;18.608;2022-12-18T08:21:25;-4.90;99.90
11925;DHT22;6022;48.768;18.608;2022-12-18T08:23:57;-4.60;99.90
11925;DHT22;6022;48.768;18.608;2022-12-18T08:26:29;-4.20;99.90
11925;DHT22;6022;48.768;18.608;2022-12-18T08:28:59;-4.50;99.90
11925;DHT22;6022;48.768;18.608;2022-12-18T08:31:30;-4.20;99.90
11925;DHT22;6022;48.768;18.608;2022-12-18T08:33:57;-4.20;99.90
11925;DHT22;6022;48.768;18.608;2022-12-18T08:36:25;-3.90;99.90
11925;DHT22;6022;48.768;18.608;2022-12-18T08:38:53;-4.00;99.90
11925;DHT22;6022;48.768;18.608;2022-12-18T08:41:23;-3.70;99.90
11925;DHT22;6022;48.768;18.608;2022-12-18T08:43:51;-3.80;99.90
11925;DHT22;6022;48.768;18.608;2022-12-18T08:46:41;-3.60;99.90
11925;DHT22;6022;48.768;18.608;2022-12-18T08:49:10;-3.50;99.90
11925;DHT22;6022;48.768;18.608;2022-12-18T08:51:38;-3.60;99.90
11925;DHT22;6022;48.768;18.608;2022-12-18T08:54:06;-3.50;99.90
11925;DHT22;6022;48.768;18.608;2022-12-18T08:56:34;-3.50;99.90
11925;DHT22;6022;48.768;18.608;2022-12-18T08:59:02;-3.40;99.90
11925;DHT22;6022;48.768;18.608;2022-12-18T09:01:31;-3.10;99.90
11925;DHT22;6022;48.768;18.608;2022-12-18T09:03:59;-3.20;99.90
11925;DHT22;6022;48.768;18.608;2022-12-18T09:06:26;-3.00;99.90
11925;DHT22;6022;48.768;18.608;2022-12-18T09:08:53;-2.90;99.90
11925;DHT22;6022;48.768;18.608;2022-12-18T09:11:23;-2.90;99.90
11925;DHT22;6022;48.768;18.608;2022-12-18T09:13:52;-2.90;99.90
11925;DHT22;6022;48.768;18.608;2022-12-18T09:16:21;-2.50;99.90
11925;DHT22;6022;48.768;18.608;2022-12-18T09:18:58;-2.50;99.90
11925;DHT22;6022;48.768;18.608;2022-12-18T09:21:31;-1.90;99.90
11925;DHT22;6022;48.768;18.608;2022-12-18T09:24:03;-2.10;99.90
11925;DHT22;6022;48.768;18.608;2022-12-18T09:26:34;-1.00;99.90
11925;DHT22;6022;48.768;18.608;2022-12-18T09:29:02;-0.70;99.90
11925;DHT22;6022;48.768;18.608;2022-12-18T09:31:30;-0.70;99.90
11925;DHT22;6022;48.768;18.608;2022-12-18T09:33:57;-0.30;99.90
11925;DHT22;6022;48.768;18.608;2022-12-18T09:36:28;-0.30;99.90
11925;DHT22;6022;48.768;18.608;2022-12-18T09:38:55;-0.30;99.90
11925;DHT22;6022;48.768;18.608;2022-12-18T09:41:54;0.10;99.90
11925;DHT22;6022;48.768;18.608;2022-12-18T09:44:29;0.40;99.90
11925;DHT22;6022;48.768;18.608;2022-12-18T09:47:18;0.50;99.90
11925;DHT22;6022;48.768;18.608;2022-12-18T09:49:58;0.70;99.90
11925;DHT22;6022;48.768;18.608;2022-12-18T09:52:34;0.80;99.90
11925;DHT22;6022;48.768;18.608;2022-12-18T09:55:24;1.20;99.90
11925;DHT22;6022;48.768;18.608;2022-12-18T09:58:39;1.00;99.90
11925;DHT22;6022;48.768;18.608;2022-12-18T10:01:15;1.10;99.90
11925;DHT22;6022;48.768;18.608;2022-12-18T10:03:47;1.20;99.90
11925;DHT22;6022;48.768;18.608;2022-12-18T10:09:52;0.80;99.90
11925;DHT22;6022;48.768;18.608;2022-12-18T10:13:12;0.50;99.90
11925;DHT22;6022;48.768;18.608;2022-12-18T10:16:09;0.40;99.90
11925;DHT22;6022;48.768;18.608;2022-12-18T10:18:44;0.40;99.90
11925;DHT22;6022;48.768;18.608;2022-12-18T10:21:21;0.40;99.90
11925;DHT22;6022;48.768;18.608;2022-12-18T10:26:41;0.20;99.90
11925;DHT22;6022;48.768;18.608;2022-12-18T10:29:13;0.00;99.90
11925;DHT22;6022;48.768;18.608;2022-12-18T10:31:42;0.30;99.90
11925;DHT22;6022;48.768;18.608;2022-12-18T10:34:11;0.40;99.90
11925;DHT22;6022;48.768;18.608;2022-12-18T10:36:42;0.30;99.90
11925;DHT22;6022;48.768;18.608;2022-12-18T10:39:21;0.50;99.90
11925;DHT22;6022;48.768;18.608;2022-12-18T10:41:50;0.90;99.90
11925;DHT22;6022;48.768;18.608;2022-12-18T10:44:21;0.70;99.90
11925;DHT22;6022;48.768;18.608;2022-12-18T10:46:54;1.20;99.90
11925;DHT22;6022;48.768;18.608;2022-12-18T10:49:41;1.10;99.90
11925;DHT22;6022;48.768;18.608;2022-12-18T10:52:18;1.30;99.90
11925;DHT22;6022;48.768;18.608;2022-12-18T10:54:56;1.30;99.90
11925;DHT22;6022;48.768;18.608;2022-12-18T10:57:36;1.40;99.90
11925;DHT22;6022;48.768;18.608;2022-12-18T11:00:28;1.20;99.90
11925;DHT22;6022;48.768;18.608;2022-12-18T11:02:57;1.20;99.90
11925;DHT22;6022;48.768;18.608;2022-12-18T11:05:33;1.30;99.90
11925;DHT22;6022;48.768;18.608;2022-12-18T11:08:03;2.00;99.90
11925;DHT22;6022;48.768;18.608;2022-12-18T11:10:36;1.60;99.90
11925;DHT22;6022;48.768;18.608;2022-12-18T11:13:23;1.60;99.90
11925;DHT22;6022;48.768;18.608;2022-12-18T11:15:52;1.90;99.90
11925;DHT22;6022;48.768;18.608;2022-12-18T11:18:32;1.50;99.90
11925;DHT22;6022;48.768;18.608;2022-12-18T11:21:09;1.90;99.90
11925;DHT22;6022;48.768;18.608;2022-12-18T11:24:07;1.70;99.90
11925;DHT22;6022;48.768;18.608;2022-12-18T11:26:48;1.80;99.90
11925;DHT22;6022;48.768;18.608;2022-12-18T11:29:31;1.60;99.90
11925;DHT22;6022;48.768;18.608;2022-12-18T11:32:38;1.80;99.90
11925;DHT22;6022;48.768;18.608;2022-12-18T11:35:11;1.90;99.90
11925;DHT22;6022;48.768;18.608;2022-12-18T11:37:47;1.70;99.90
11925;DHT22;6022;48.768;18.608;2022-12-18T11:40:25;1.40;99.90
11925;DHT22;6022;48.768;18.608;2022-12-18T11:46:01;2.30;99.90
11925;DHT22;6022;48.768;18.608;2022-12-18T11:48:38;2.10;99.90
11925;DHT22;6022;48.768;18.608;2022-12-18T11:51:19;2.60;99.90
11925;DHT22;6022;48.768;18.608;2022-12-18T11:53:55;2.70;99.90
11925;DHT22;6022;48.768;18.608;2022-12-18T11:56:32;2.50;99.90
11925;DHT22;6022;48.768;18.608;2022-12-18T12:01:56;2.80;99.90
11925;DHT22;6022;48.768;18.608;2022-12-18T12:14:51;3.20;99.90
11925;DHT22;6022;48.768;18.608;2022-12-18T12:23:01;3.40;99.90
11925;DHT22;6022;48.768;18.608;2022-12-18T12:26:10;3.50;99.90
11925;DHT22;6022;48.768;18.608;2022-12-18T12:37:49;3.60;99.90
11925;DHT22;6022;48.768;18.608;2022-12-18T12:40:24;3.60;99.90
11925;DHT22;6022;48.768;18.608;2022-12-18T12:43:41;3.50;99.90
11925;DHT22;6022;48.768;18.608;2022-12-18T12:46:18;3.50;99.90
11925;DHT22;6022;48.768;18.608;2022-12-18T12:48:58;2.90;99.90
11925;DHT22;6022;48.768;18.608;2022-12-18T12:51:33;2.90;99.90
11925;DHT22;6022;48.768;18.608;2022-12-18T12:54:06;2.90;99.90
11925;DHT22;6022;48.768;18.608;2022-12-18T13:02:22;2.40;99.90
11925;DHT22;6022;48.768;18.608;2022-12-18T13:10:55;2.30;99.90
11925;DHT22;6022;48.768;18.608;2022-12-18T13:13:54;2.20;99.90
11925;DHT22;6022;48.768;18.608;2022-12-18T13:16:25;2.00;99.90
11925;DHT22;6022;48.768;18.608;2022-12-18T13:19:00;2.30;99.90
11925;DHT22;6022;48.768;18.608;2022-12-18T13:21:36;1.70;99.90
11925;DHT22;6022;48.768;18.608;2022-12-18T13:24:26;1.90;99.90
11925;DHT22;6022;48.768;18.608;2022-12-18T13:26:59;2.00;99.90
11925;DHT22;6022;48.768;18.608;2022-12-18T13:29:44;2.00;99.90
11925;DHT22;6022;48.768;18.608;2022-12-18T13:32:24;1.90;99.90
11925;DHT22;6022;48.768;18.608;2022-12-18T13:37:54;2.10;99.90
11925;DHT22;6022;48.768;18.608;2022-12-18T13:46:16;2.20;99.90
11925;DHT22;6022;48.768;18.608;2022-12-18T13:49:04;2.10;99.90
11925;DHT22;6022;48.768;18.608;2022-12-18T13:51:54;2.00;99.90
11925;DHT22;6022;48.768;18.608;2022-12-18T13:54:45;1.80;99.90
11925;DHT22;6022;48.768;18.608;2022-12-18T13:57:36;1.90;99.90
11925;DHT22;6022;48.768;18.608;2022-12-18T14:00:26;1.50;99.90
11925;DHT22;6022;48.768;18.608;2022-12-18T14:03:17;1.80;99.90
11925;DHT22;6022;48.768;18.608;2022-12-18T14:06:01;1.80;99.90
11925;DHT22;6022;48.768;18.608;2022-12-18T14:08:44;1.40;99.90
11925;DHT22;6022;48.768;18.608;2022-12-18T14:11:22;1.30;99.90
11925;DHT22;6022;48.768;18.608;2022-12-18T14:13:55;1.30;99.90
11925;DHT22;6022;48.768;18.608;2022-12-18T14:16:25;1.10;99.90
11925;DHT22;6022;48.768;18.608;2022-12-18T14:18:54;1.20;99.90
11925;DHT22;6022;48.768;18.608;2022-12-18T14:21:40;1.20;99.90
11925;DHT22;6022;48.768;18.608;2022-12-18T14:24:18;1.00;99.90
11925;DHT22;6022;48.768;18.608;2022-12-18T14:26:49;0.80;99.90
11925;DHT22;6022;48.768;18.608;2022-12-18T14:29:28;1.00;99.90
11925;DHT22;6022;48.768;18.608;2022-12-18T14:32:13;0.90;99.90
11925;DHT22;6022;48.768;18.608;2022-12-18T14:34:54;0.70;99.90
11925;DHT22;6022;48.768;18.608;2022-12-18T14:37:24;0.70;99.90
11925;DHT22;6022;48.768;18.608;2022-12-18T14:39:54;0.60;99.90
11925;DHT22;6022;48.768;18.608;2022-12-18T14:42:24;0.70;99.90
11925;DHT22;6022;48.768;18.608;2022-12-18T14:51:06;0.30;99.90
11925;DHT22;6022;48.768;18.608;2022-12-18T14:53:46;0.40;99.90
11925;DHT22;6022;48.768;18.608;2022-12-18T14:56:26;0.00;99.90
11925;DHT22;6022;48.768;18.608;2022-12-18T14:58:57;0.00;99.90
11925;DHT22;6022;48.768;18.608;2022-12-18T15:01:33;-0.10;99.90
11925;DHT22;6022;48.768;18.608;2022-12-18T15:04:31;-0.20;99.90
11925;DHT22;6022;48.768;18.608;2022-12-18T15:07:05;-0.20;99.90
11925;DHT22;6022;48.768;18.608;2022-12-18T15:09:36;-0.20;99.90
11925;DHT22;6022;48.768;18.608;2022-12-18T15:12:04;-0.30;99.90
11925;DHT22;6022;48.768;18.608;2022-12-18T15:14:41;-0.40;99.90
11925;DHT22;6022;48.768;18.608;2022-12-18T15:17:19;-0.40;99.90
11925;DHT22;6022;48.768;18.608;2022-12-18T15:19:58;-0.50;99.90
11925;DHT22;6022;48.768;18.608;2022-12-18T15:22:36;-0.60;99.90
11925;DHT22;6022;48.768;18.608;2022-12-18T15:25:29;-0.50;99.90
11925;DHT22;6022;48.768;18.608;2022-12-18T15:28:04;-0.80;99.90
11925;DHT22;6022;48.768;18.608;2022-12-18T15:33:38;-1.10;99.90
11925;DHT22;6022;48.768;18.608;2022-12-18T15:36:17;-0.90;99.90
11925;DHT22;6022;48.768;18.608;2022-12-18T15:38:54;-1.10;99.90
11925;DHT22;6022;48.768;18.608;2022-12-18T15:41:34;-1.10;99.90
11925;DHT22;6022;48.768;18.608;2022-12-18T15:44:35;-1.20;99.90
11925;DHT22;6022;48.768;18.608;2022-12-18T15:47:04;-1.20;99.90
11925;DHT22;6022;48.768;18.608;2022-12-18T15:49:36;-1.10;99.90
11925;DHT22;6022;48.768;18.608;2022-12-18T15:52:05;-1.60;99.90
11925;DHT22;6022;48.768;18.608;2022-12-18T15:54:33;-1.50;99.90
11925;DHT22;6022;48.768;18.608;2022-12-18T15:57:19;-1.40;99.90
11925;DHT22;6022;48.768;18.608;2022-12-18T15:59:54;-1.40;99.90
11925;DHT22;6022;48.768;18.608;2022-12-18T16:02:32;-1.50;99.90
11925;DHT22;6022;48.768;18.608;2022-12-18T16:05:02;-1.50;99.90
11925;DHT22;6022;48.768;18.608;2022-12-18T16:07:31;-1.60;99.90
11925;DHT22;6022;48.768;18.608;2022-12-18T16:09:58;-1.50;99.90
11925;DHT22;6022;48.768;18.608;2022-12-18T16:12:28;-1.70;99.90
11925;DHT22;6022;48.768;18.608;2022-12-18T16:14:55;-1.80;99.90
11925;DHT22;6022;48.768;18.608;2022-12-18T16:17:22;-1.80;99.90
11925;DHT22;6022;48.768;18.608;2022-12-18T16:19:50;-1.80;99.90
11925;DHT22;6022;48.768;18.608;2022-12-18T16:22:22;-2.00;99.90
11925;DHT22;6022;48.768;18.608;2022-12-18T16:24:52;-2.10;99.90
11925;DHT22;6022;48.768;18.608;2022-12-18T16:27:20;-1.90;99.90
11925;DHT22;6022;48.768;18.608;2022-12-18T16:29:49;-2.20;99.90
11925;DHT22;6022;48.768;18.608;2022-12-18T16:32:22;-2.40;99.90
11925;DHT22;6022;48.768;18.608;2022-12-18T16:34:50;-2.00;99.90
11925;DHT22;6022;48.768;18.608;2022-12-18T16:37:17;-2.40;99.90
11925;DHT22;6022;48.768;18.608;2022-12-18T16:39:44;-2.40;99.90
11925;DHT22;6022;48.768;18.608;2022-12-18T16:42:17;-2.50;99.90
11925;DHT22;6022;48.768;18.608;2022-12-18T16:44:49;-2.50;99.90
11925;DHT22;6022;48.768;18.608;2022-12-18T16:47:17;-2.60;99.90
11925;DHT22;6022;48.768;18.608;2022-12-18T16:49:45;-2.40;99.90
11925;DHT22;6022;48.768;18.608;2022-12-18T16:52:15;-2.60;99.90
11925;DHT22;6022;48.768;18.608;2022-12-18T16:54:47;-2.70;99.90
11925;DHT22;6022;48.768;18.608;2022-12-18T16:57:17;-2.60;99.90
11925;DHT22;6022;48.768;18.608;2022-12-18T16:59:50;-2.90;99.90
11925;DHT22;6022;48.768;18.608;2022-12-18T17:02:21;-2.90;99.90
11925;DHT22;6022;48.768;18.608;2022-12-18T17:04:55;-3.00;99.90
11925;DHT22;6022;48.768;18.608;2022-12-18T17:07:24;-2.80;99.90
11925;DHT22;6022;48.768;18.608;2022-12-18T17:09:52;-2.80;99.90
11925;DHT22;6022;48.768;18.608;2022-12-18T17:12:20;-3.10;99.90
11925;DHT22;6022;48.768;18.608;2022-12-18T17:14:48;-3.20;99.90
11925;DHT22;6022;48.768;18.608;2022-12-18T17:17:16;-3.20;99.90
11925;DHT22;6022;48.768;18.608;2022-12-18T17:19:47;-3.30;99.90
11925;DHT22;6022;48.768;18.608;2022-12-18T17:22:15;-3.30;99.90
11925;DHT22;6022;48.768;18.608;2022-12-18T17:24:42;-3.10;99.90
11925;DHT22;6022;48.768;18.608;2022-12-18T17:27:09;-3.30;99.90
11925;DHT22;6022;48.768;18.608;2022-12-18T17:29:36;-3.50;99.90
11925;DHT22;6022;48.768;18.608;2022-12-18T17:32:12;-3.40;99.90
11925;DHT22;6022;48.768;18.608;2022-12-18T17:34:40;-3.70;99.90
11925;DHT22;6022;48.768;18.608;2022-12-18T17:37:07;-3.40;99.90
11925;DHT22;6022;48.768;18.608;2022-12-18T17:39:35;-3.40;99.90
11925;DHT22;6022;48.768;18.608;2022-12-18T17:42:03;-3.50;99.90
11925;DHT22;6022;48.768;18.608;2022-12-18T17:44:31;-3.40;99.90
11925;DHT22;6022;48.768;18.608;2022-12-18T17:47:00;-3.50;99.90
11925;DHT22;6022;48.768;18.608;2022-12-18T17:49:28;-3.40;99.90